sensor_id;sensor_type;location;lat;lon;timestamp;temperature;humidity
31387;DHT22;18017;50.124;8.688;2022-08-03T00:00:43;23.10;85.70
31387;DHT22;18017;50.124;8.688;2022-08-03T00:03:08;23.10;85.80
31387;DHT22;18017;50.124;8.688;2022-08-03T00:05:35;23.10;85.80
31387;DHT22;18017;50.124;8.688;2022-08-03T00:08:01;23.00;86.10
31387;DHT22;18017;50.124;8.688;2022-08-03T00:10:26;23.00;86.50
31387;DHT22;18017;50.124;8.688;2022-08-03T00:12:52;22.90;86.40
31387;DHT22;18017;50.124;8.688;2022-08-03T00:15:18;22.90;86.40
31387;DHT22;18017;50.124;8.688;2022-08-03T00:17:44;22.90;87.00
31387;DHT22;18017;50.124;8.688;2022-08-03T00:20:10;22.90;86.90
31387;DHT22;18017;50.124;8.688;2022-08-03T00:22:36;22.90;87.10
31387;DHT22;18017;50.124;8.688;2022-08-03T00:25:02;22.80;87.10
31387;DHT22;18017;50.124;8.688;2022-08-03T00:27:28;22.80;87.20
31387;DHT22;18017;50.124;8.688;2022-08-03T00:29:53;22.70;87.30
31387;DHT22;18017;50.124;8.688;2022-08-03T00:32:19;22.70;87.60
31387;DHT22;18017;50.124;8.688;2022-08-03T00:34:44;22.80;87.40
31387;DHT22;18017;50.124;8.688;2022-08-03T00:37:10;22.70;87.90
31387;DHT22;18017;50.124;8.688;2022-08-03T00:39:35;22.60;87.90
31387;DHT22;18017;50.124;8.688;2022-08-03T00:42:03;22.60;88.50
31387;DHT22;18017;50.124;8.688;2022-08-03T00:44:29;22.60;88.50
31387;DHT22;18017;50.124;8.688;2022-08-03T00:46:55;22.60;88.90
31387;DHT22;18017;50.124;8.688;2022-08-03T00:49:20;22.50;89.30
31387;DHT22;18017;50.124;8.688;2022-08-03T00:51:46;22.50;89.20
31387;DHT22;18017;50.124;8.688;2022-08-03T00:54:13;22.40;89.70
31387;DHT22;18017;50.124;8.688;2022-08-03T00:56:41;22.40;89.90
31387;DHT22;18017;50.124;8.688;2022-08-03T00:59:09;22.40;89.60
31387;DHT22;18017;50.124;8.688;2022-08-03T01:01:35;22.30;90.00
31387;DHT22;18017;50.124;8.688;2022-08-03T01:04:01;22.30;90.20
31387;DHT22;18017;50.124;8.688;2022-08-03T01:06:45;22.30;90.10
31387;DHT22;18017;50.124;8.688;2022-08-03T01:09:22;22.30;90.30
31387;DHT22;18017;50.124;8.688;2022-08-03T01:12:01;22.20;90.40
31387;DHT22;18017;50.124;8.688;2022-08-03T01:14:55;22.20;90.40
31387;DHT22;18017;50.124;8.688;2022-08-03T01:20:12;22.10;90.90
31387;DHT22;18017;50.124;8.688;2022-08-03T01:23:06;22.00;90.90
31387;DHT22;18017;50.124;8.688;2022-08-03T01:31:10;21.90;91.20
31387;DHT22;18017;50.124;8.688;2022-08-03T01:33:39;21.90;91.30
31387;DHT22;18017;50.124;8.688;2022-08-03T01:36:13;21.90;91.30
31387;DHT22;18017;50.124;8.688;2022-08-03T01:38:45;21.80;91.50
31387;DHT22;18017;50.124;8.688;2022-08-03T01:41:16;21.80;91.50
31387;DHT22;18017;50.124;8.688;2022-08-03T01:43:44;21.80;91.60
31387;DHT22;18017;50.124;8.688;2022-08-03T01:46:15;21.70;91.70
31387;DHT22;18017;50.124;8.688;2022-08-03T01:48:42;21.70;91.90
31387;DHT22;18017;50.124;8.688;2022-08-03T01:51:09;21.70;91.90
31387;DHT22;18017;50.124;8.688;2022-08-03T01:53:38;21.60;92.10
31387;DHT22;18017;50.124;8.688;2022-08-03T01:56:07;21.60;92.10
31387;DHT22;18017;50.124;8.688;2022-08-03T01:58:35;21.60;92.20
31387;DHT22;18017;50.124;8.688;2022-08-03T02:01:03;21.50;92.40
31387;DHT22;18017;50.124;8.688;2022-08-03T02:03:31;21.50;92.50
31387;DHT22;18017;50.124;8.688;2022-08-03T02:05:59;21.40;92.60
31387;DHT22;18017;50.124;8.688;2022-08-03T02:08:26;21.40;92.70
31387;DHT22;18017;50.124;8.688;2022-08-03T02:10:54;21.40;92.80
31387;DHT22;18017;50.124;8.688;2022-08-03T02:13:22;21.40;92.80
31387;DHT22;18017;50.124;8.688;2022-08-03T02:15:49;21.40;92.90
31387;DHT22;18017;50.124;8.688;2022-08-03T02:18:17;21.30;93.00
31387;DHT22;18017;50.124;8.688;2022-08-03T02:20:45;21.20;93.20
31387;DHT22;18017;50.124;8.688;2022-08-03T02:23:13;21.20;93.30
31387;DHT22;18017;50.124;8.688;2022-08-03T02:25:46;21.20;93.40
31387;DHT22;18017;50.124;8.688;2022-08-03T02:28:28;21.20;93.40
31387;DHT22;18017;50.124;8.688;2022-08-03T02:30:57;21.20;93.50
31387;DHT22;18017;50.124;8.688;2022-08-03T02:33:29;21.20;93.60
31387;DHT22;18017;50.124;8.688;2022-08-03T02:35:56;21.10;93.70
31387;DHT22;18017;50.124;8.688;2022-08-03T02:38:30;21.10;93.80
31387;DHT22;18017;50.124;8.688;2022-08-03T02:40:57;21.10;93.80
31387;DHT22;18017;50.124;8.688;2022-08-03T02:43:24;21.00;93.90
31387;DHT22;18017;50.124;8.688;2022-08-03T02:45:50;21.10;94.10
31387;DHT22;18017;50.124;8.688;2022-08-03T02:48:24;21.00;94.20
31387;DHT22;18017;50.124;8.688;2022-08-03T02:50:53;20.90;94.30
31387;DHT22;18017;50.124;8.688;2022-08-03T02:53:20;20.90;94.40
31387;DHT22;18017;50.124;8.688;2022-08-03T02:55:48;20.90;94.60
31387;DHT22;18017;50.124;8.688;2022-08-03T02:58:17;20.80;94.70
31387;DHT22;18017;50.124;8.688;2022-08-03T03:00:44;20.90;94.80
31387;DHT22;18017;50.124;8.688;2022-08-03T03:03:10;20.80;94.90
31387;DHT22;18017;50.124;8.688;2022-08-03T03:05:37;20.80;95.00
31387;DHT22;18017;50.124;8.688;2022-08-03T03:08:05;20.70;95.10
31387;DHT22;18017;50.124;8.688;2022-08-03T03:10:30;20.70;95.30
31387;DHT22;18017;50.124;8.688;2022-08-03T03:12:57;20.70;95.30
31387;DHT22;18017;50.124;8.688;2022-08-03T03:15:25;20.70;95.50
31387;DHT22;18017;50.124;8.688;2022-08-03T03:17:51;20.70;95.50
31387;DHT22;18017;50.124;8.688;2022-08-03T03:20:17;20.60;95.60
31387;DHT22;18017;50.124;8.688;2022-08-03T03:22:46;20.60;95.70
31387;DHT22;18017;50.124;8.688;2022-08-03T03:25:12;20.60;95.90
31387;DHT22;18017;50.124;8.688;2022-08-03T03:27:38;20.60;95.80
31387;DHT22;18017;50.124;8.688;2022-08-03T03:30:04;20.50;95.90
31387;DHT22;18017;50.124;8.688;2022-08-03T03:32:30;20.50;96.10
31387;DHT22;18017;50.124;8.688;2022-08-03T03:34:57;20.40;96.20
31387;DHT22;18017;50.124;8.688;2022-08-03T03:37:24;20.40;96.30
31387;DHT22;18017;50.124;8.688;2022-08-03T03:39:52;20.40;96.60
31387;DHT22;18017;50.124;8.688;2022-08-03T03:42:19;20.40;96.70
31387;DHT22;18017;50.124;8.688;2022-08-03T03:44:44;20.50;96.80
31387;DHT22;18017;50.124;8.688;2022-08-03T03:47:10;20.50;96.60
31387;DHT22;18017;50.124;8.688;2022-08-03T03:49:36;20.40;96.70
31387;DHT22;18017;50.124;8.688;2022-08-03T03:52:02;20.40;96.80
31387;DHT22;18017;50.124;8.688;2022-08-03T03:54:41;20.40;96.80
31387;DHT22;18017;50.124;8.688;2022-08-03T03:57:07;20.40;96.80
31387;DHT22;18017;50.124;8.688;2022-08-03T03:59:37;20.40;96.90
31387;DHT22;18017;50.124;8.688;2022-08-03T04:02:02;20.30;97.20
31387;DHT22;18017;50.124;8.688;2022-08-03T04:04:31;20.30;97.00
31387;DHT22;18017;50.124;8.688;2022-08-03T04:07:16;20.30;97.10
31387;DHT22;18017;50.124;8.688;2022-08-03T04:10:01;20.40;96.90
31387;DHT22;18017;50.124;8.688;2022-08-03T04:12:47;20.40;97.00
31387;DHT22;18017;50.124;8.688;2022-08-03T04:15:13;20.40;97.00
31387;DHT22;18017;50.124;8.688;2022-08-03T04:17:39;20.40;96.80
31387;DHT22;18017;50.124;8.688;2022-08-03T04:20:08;20.50;96.80
31387;DHT22;18017;50.124;8.688;2022-08-03T04:22:35;20.50;96.90
31387;DHT22;18017;50.124;8.688;2022-08-03T04:25:04;20.60;96.70
31387;DHT22;18017;50.124;8.688;2022-08-03T04:27:37;20.60;96.70
31387;DHT22;18017;50.124;8.688;2022-08-03T04:30:05;20.60;96.50
31387;DHT22;18017;50.124;8.688;2022-08-03T04:32:31;20.60;96.30
31387;DHT22;18017;50.124;8.688;2022-08-03T04:34:57;20.60;96.60
31387;DHT22;18017;50.124;8.688;2022-08-03T04:37:42;20.60;96.10
31387;DHT22;18017;50.124;8.688;2022-08-03T04:40:14;20.70;96.10
31387;DHT22;18017;50.124;8.688;2022-08-03T04:42:41;20.70;96.10
31387;DHT22;18017;50.124;8.688;2022-08-03T04:45:12;20.80;96.20
31387;DHT22;18017;50.124;8.688;2022-08-03T04:47:39;20.80;96.30
31387;DHT22;18017;50.124;8.688;2022-08-03T04:50:06;20.80;96.30
31387;DHT22;18017;50.124;8.688;2022-08-03T04:52:33;20.90;96.20
31387;DHT22;18017;50.124;8.688;2022-08-03T04:54:58;20.90;96.10
31387;DHT22;18017;50.124;8.688;2022-08-03T04:57:24;20.90;95.90
31387;DHT22;18017;50.124;8.688;2022-08-03T04:59:51;21.00;95.70
31387;DHT22;18017;50.124;8.688;2022-08-03T05:02:21;20.90;95.80
31387;DHT22;18017;50.124;8.688;2022-08-03T05:04:48;20.90;95.70
31387;DHT22;18017;50.124;8.688;2022-08-03T05:07:15;20.80;95.80
31387;DHT22;18017;50.124;8.688;2022-08-03T05:09:41;20.90;95.90
31387;DHT22;18017;50.124;8.688;2022-08-03T05:12:07;20.90;95.60
31387;DHT22;18017;50.124;8.688;2022-08-03T05:14:33;21.00;95.60
31387;DHT22;18017;50.124;8.688;2022-08-03T05:17:01;21.00;95.70
31387;DHT22;18017;50.124;8.688;2022-08-03T05:19:27;21.10;95.40
31387;DHT22;18017;50.124;8.688;2022-08-03T05:21:52;21.10;95.40
31387;DHT22;18017;50.124;8.688;2022-08-03T05:24:18;21.20;95.30
31387;DHT22;18017;50.124;8.688;2022-08-03T05:26:44;21.20;95.00
31387;DHT22;18017;50.124;8.688;2022-08-03T05:29:09;21.20;95.00
31387;DHT22;18017;50.124;8.688;2022-08-03T05:31:35;21.30;95.10
31387;DHT22;18017;50.124;8.688;2022-08-03T05:34:00;21.40;95.20
31387;DHT22;18017;50.124;8.688;2022-08-03T05:36:26;21.30;94.80
31387;DHT22;18017;50.124;8.688;2022-08-03T05:38:51;21.20;94.80
31387;DHT22;18017;50.124;8.688;2022-08-03T05:41:18;21.30;95.00
31387;DHT22;18017;50.124;8.688;2022-08-03T05:43:43;21.50;94.70
31387;DHT22;18017;50.124;8.688;2022-08-03T05:46:09;22.20;94.30
31387;DHT22;18017;50.124;8.688;2022-08-03T05:48:35;22.50;93.50
31387;DHT22;18017;50.124;8.688;2022-08-03T05:51:00;22.50;93.50
31387;DHT22;18017;50.124;8.688;2022-08-03T05:53:26;23.20;93.30
31387;DHT22;18017;50.124;8.688;2022-08-03T05:55:54;24.10;92.50
31387;DHT22;18017;50.124;8.688;2022-08-03T05:58:19;24.80;91.60
31387;DHT22;18017;50.124;8.688;2022-08-03T06:00:45;25.50;91.10
31387;DHT22;18017;50.124;8.688;2022-08-03T06:03:10;26.00;90.50
31387;DHT22;18017;50.124;8.688;2022-08-03T06:05:36;26.50;90.00
31387;DHT22;18017;50.124;8.688;2022-08-03T06:08:04;26.90;89.70
31387;DHT22;18017;50.124;8.688;2022-08-03T06:10:30;27.50;88.00
31387;DHT22;18017;50.124;8.688;2022-08-03T06:12:56;27.20;87.80
31387;DHT22;18017;50.124;8.688;2022-08-03T06:15:21;27.90;87.40
31387;DHT22;18017;50.124;8.688;2022-08-03T06:17:48;28.50;85.90
31387;DHT22;18017;50.124;8.688;2022-08-03T06:20:19;28.80;85.50
31387;DHT22;18017;50.124;8.688;2022-08-03T06:22:46;28.90;84.80
31387;DHT22;18017;50.124;8.688;2022-08-03T06:25:12;29.10;83.90
31387;DHT22;18017;50.124;8.688;2022-08-03T06:27:38;29.80;83.10
31387;DHT22;18017;50.124;8.688;2022-08-03T06:30:08;30.20;82.60
31387;DHT22;18017;50.124;8.688;2022-08-03T06:32:35;30.80;81.60
31387;DHT22;18017;50.124;8.688;2022-08-03T06:35:01;31.40;81.30
31387;DHT22;18017;50.124;8.688;2022-08-03T06:37:27;32.40;80.20
31387;DHT22;18017;50.124;8.688;2022-08-03T06:39:53;33.00;78.90
31387;DHT22;18017;50.124;8.688;2022-08-03T06:42:19;33.50;77.60
31387;DHT22;18017;50.124;8.688;2022-08-03T06:44:44;34.00;77.10
31387;DHT22;18017;50.124;8.688;2022-08-03T06:47:10;34.70;76.70
31387;DHT22;18017;50.124;8.688;2022-08-03T06:49:36;35.60;75.50
31387;DHT22;18017;50.124;8.688;2022-08-03T06:52:02;36.00;74.30
31387;DHT22;18017;50.124;8.688;2022-08-03T06:54:27;36.10;73.30
31387;DHT22;18017;50.124;8.688;2022-08-03T06:56:53;37.00;73.00
31387;DHT22;18017;50.124;8.688;2022-08-03T06:59:19;37.60;72.40
31387;DHT22;18017;50.124;8.688;2022-08-03T07:01:44;37.90;71.10
31387;DHT22;18017;50.124;8.688;2022-08-03T07:04:10;38.00;70.80
31387;DHT22;18017;50.124;8.688;2022-08-03T07:06:38;38.10;69.80
31387;DHT22;18017;50.124;8.688;2022-08-03T07:09:04;38.00;70.00
31387;DHT22;18017;50.124;8.688;2022-08-03T07:11:30;38.60;69.50
31387;DHT22;18017;50.124;8.688;2022-08-03T07:13:55;39.40;68.90
31387;DHT22;18017;50.124;8.688;2022-08-03T07:16:21;39.30;68.70
31387;DHT22;18017;50.124;8.688;2022-08-03T07:18:47;39.70;68.20
31387;DHT22;18017;50.124;8.688;2022-08-03T07:21:13;40.00;67.70
31387;DHT22;18017;50.124;8.688;2022-08-03T07:23:40;40.30;67.30
31387;DHT22;18017;50.124;8.688;2022-08-03T07:26:06;40.70;66.60
31387;DHT22;18017;50.124;8.688;2022-08-03T07:28:31;41.20;65.90
31387;DHT22;18017;50.124;8.688;2022-08-03T07:30:57;41.40;66.10
31387;DHT22;18017;50.124;8.688;2022-08-03T07:33:23;41.20;65.30
31387;DHT22;18017;50.124;8.688;2022-08-03T07:35:49;41.30;64.80
31387;DHT22;18017;50.124;8.688;2022-08-03T07:38:15;41.90;64.70
31387;DHT22;18017;50.124;8.688;2022-08-03T07:40:40;42.10;64.50
31387;DHT22;18017;50.124;8.688;2022-08-03T07:43:06;43.50;64.10
31387;DHT22;18017;50.124;8.688;2022-08-03T07:45:32;44.40;63.30
31387;DHT22;18017;50.124;8.688;2022-08-03T07:47:57;45.70;62.60
31387;DHT22;18017;50.124;8.688;2022-08-03T07:50:23;46.40;61.70
31387;DHT22;18017;50.124;8.688;2022-08-03T07:52:49;46.70;60.90
31387;DHT22;18017;50.124;8.688;2022-08-03T07:55:21;46.70;60.40
31387;DHT22;18017;50.124;8.688;2022-08-03T07:57:57;47.40;60.10
31387;DHT22;18017;50.124;8.688;2022-08-03T08:00:26;48.00;59.80
31387;DHT22;18017;50.124;8.688;2022-08-03T08:02:52;48.00;59.30
31387;DHT22;18017;50.124;8.688;2022-08-03T08:05:18;49.70;59.30
31387;DHT22;18017;50.124;8.688;2022-08-03T08:07:44;49.20;58.60
31387;DHT22;18017;50.124;8.688;2022-08-03T08:10:09;48.70;58.50
31387;DHT22;18017;50.124;8.688;2022-08-03T08:12:36;49.50;58.20
31387;DHT22;18017;50.124;8.688;2022-08-03T08:15:02;50.30;58.00
31387;DHT22;18017;50.124;8.688;2022-08-03T08:17:28;50.90;57.90
31387;DHT22;18017;50.124;8.688;2022-08-03T08:19:53;51.60;57.30
31387;DHT22;18017;50.124;8.688;2022-08-03T08:22:19;50.70;57.00
31387;DHT22;18017;50.124;8.688;2022-08-03T08:24:45;51.00;56.80
31387;DHT22;18017;50.124;8.688;2022-08-03T08:27:12;50.90;56.90
31387;DHT22;18017;50.124;8.688;2022-08-03T08:29:38;51.00;56.60
31387;DHT22;18017;50.124;8.688;2022-08-03T08:32:04;51.20;55.90
31387;DHT22;18017;50.124;8.688;2022-08-03T08:34:30;52.40;56.00
31387;DHT22;18017;50.124;8.688;2022-08-03T08:36:55;52.40;55.60
31387;DHT22;18017;50.124;8.688;2022-08-03T08:39:21;52.20;55.60
31387;DHT22;18017;50.124;8.688;2022-08-03T08:41:50;53.00;55.60
31387;DHT22;18017;50.124;8.688;2022-08-03T08:44:16;53.10;55.20
31387;DHT22;18017;50.124;8.688;2022-08-03T08:46:42;54.00;55.00
31387;DHT22;18017;50.124;8.688;2022-08-03T08:49:09;54.50;54.70
31387;DHT22;18017;50.124;8.688;2022-08-03T08:51:36;53.60;54.20
31387;DHT22;18017;50.124;8.688;2022-08-03T08:54:06;55.10;54.30
31387;DHT22;18017;50.124;8.688;2022-08-03T08:56:32;54.30;53.40
31387;DHT22;18017;50.124;8.688;2022-08-03T08:59:00;55.00;53.60
31387;DHT22;18017;50.124;8.688;2022-08-03T09:01:27;55.50;53.20
31387;DHT22;18017;50.124;8.688;2022-08-03T09:03:53;56.50;53.20
31387;DHT22;18017;50.124;8.688;2022-08-03T09:06:20;55.50;53.10
31387;DHT22;18017;50.124;8.688;2022-08-03T09:08:45;55.20;52.90
31387;DHT22;18017;50.124;8.688;2022-08-03T09:11:11;56.00;53.00
31387;DHT22;18017;50.124;8.688;2022-08-03T09:13:37;55.50;52.70
31387;DHT22;18017;50.124;8.688;2022-08-03T09:16:13;55.70;52.40
31387;DHT22;18017;50.124;8.688;2022-08-03T09:18:41;56.40;52.50
31387;DHT22;18017;50.124;8.688;2022-08-03T09:24:08;57.80;51.90
31387;DHT22;18017;50.124;8.688;2022-08-03T09:26:36;57.40;51.80
31387;DHT22;18017;50.124;8.688;2022-08-03T09:29:07;57.70;51.60
31387;DHT22;18017;50.124;8.688;2022-08-03T09:31:40;56.00;51.30
31387;DHT22;18017;50.124;8.688;2022-08-03T09:34:08;57.00;51.50
31387;DHT22;18017;50.124;8.688;2022-08-03T09:39:05;57.00;51.50
31387;DHT22;18017;50.124;8.688;2022-08-03T09:41:32;55.50;51.30
31387;DHT22;18017;50.124;8.688;2022-08-03T09:43:58;56.50;51.40
31387;DHT22;18017;50.124;8.688;2022-08-03T09:46:24;57.60;51.50
31387;DHT22;18017;50.124;8.688;2022-08-03T09:48:49;57.40;51.10
31387;DHT22;18017;50.124;8.688;2022-08-03T09:51:15;56.60;51.20
31387;DHT22;18017;50.124;8.688;2022-08-03T09:53:44;56.60;51.40
31387;DHT22;18017;50.124;8.688;2022-08-03T09:56:10;56.40;51.30
31387;DHT22;18017;50.124;8.688;2022-08-03T09:58:44;55.90;51.50
31387;DHT22;18017;50.124;8.688;2022-08-03T10:01:11;56.30;51.40
31387;DHT22;18017;50.124;8.688;2022-08-03T10:03:38;55.70;51.30
31387;DHT22;18017;50.124;8.688;2022-08-03T10:06:18;56.00;51.50
31387;DHT22;18017;50.124;8.688;2022-08-03T10:09:03;57.00;51.30
31387;DHT22;18017;50.124;8.688;2022-08-03T10:11:32;58.30;51.00
31387;DHT22;18017;50.124;8.688;2022-08-03T10:14:02;57.70;51.10
31387;DHT22;18017;50.124;8.688;2022-08-03T10:16:33;58.10;51.10
31387;DHT22;18017;50.124;8.688;2022-08-03T10:18:59;58.60;51.10
31387;DHT22;18017;50.124;8.688;2022-08-03T10:21:25;58.40;51.00
31387;DHT22;18017;50.124;8.688;2022-08-03T10:23:55;59.30;50.70
31387;DHT22;18017;50.124;8.688;2022-08-03T10:26:21;59.30;51.00
31387;DHT22;18017;50.124;8.688;2022-08-03T10:28:52;59.50;50.80
31387;DHT22;18017;50.124;8.688;2022-08-03T10:31:19;58.90;50.70
31387;DHT22;18017;50.124;8.688;2022-08-03T10:33:49;58.90;50.90
31387;DHT22;18017;50.124;8.688;2022-08-03T10:36:15;58.20;50.70
31387;DHT22;18017;50.124;8.688;2022-08-03T10:38:46;55.50;50.90
31387;DHT22;18017;50.124;8.688;2022-08-03T10:41:13;53.80;51.40
31387;DHT22;18017;50.124;8.688;2022-08-03T10:43:55;54.10;51.60
31387;DHT22;18017;50.124;8.688;2022-08-03T10:46:21;55.40;51.40
31387;DHT22;18017;50.124;8.688;2022-08-03T10:48:50;56.20;51.20
31387;DHT22;18017;50.124;8.688;2022-08-03T10:51:18;55.70;51.00
31387;DHT22;18017;50.124;8.688;2022-08-03T10:53:44;56.20;50.70
31387;DHT22;18017;50.124;8.688;2022-08-03T10:59:17;54.20;51.40
31387;DHT22;18017;50.124;8.688;2022-08-03T11:01:52;55.10;51.10
31387;DHT22;18017;50.124;8.688;2022-08-03T11:04:20;56.00;51.20
31387;DHT22;18017;50.124;8.688;2022-08-03T11:06:46;57.00;51.00
31387;DHT22;18017;50.124;8.688;2022-08-03T11:09:13;56.60;50.50
31387;DHT22;18017;50.124;8.688;2022-08-03T11:11:40;55.50;50.80
31387;DHT22;18017;50.124;8.688;2022-08-03T11:14:18;55.40;51.00
31387;DHT22;18017;50.124;8.688;2022-08-03T11:16:50;55.40;50.90
31387;DHT22;18017;50.124;8.688;2022-08-03T11:19:43;54.40;51.10
31387;DHT22;18017;50.124;8.688;2022-08-03T11:22:09;53.20;51.60
31387;DHT22;18017;50.124;8.688;2022-08-03T11:30:06;55.00;51.70
31387;DHT22;18017;50.124;8.688;2022-08-03T11:35:25;55.90;51.50
31387;DHT22;18017;50.124;8.688;2022-08-03T11:40:42;55.20;51.00
31387;DHT22;18017;50.124;8.688;2022-08-03T11:46:18;55.40;51.20
31387;DHT22;18017;50.124;8.688;2022-08-03T11:48:49;54.90;51.50
31387;DHT22;18017;50.124;8.688;2022-08-03T11:51:27;54.10;51.20
31387;DHT22;18017;50.124;8.688;2022-08-03T11:53:53;53.90;51.30
31387;DHT22;18017;50.124;8.688;2022-08-03T11:56:19;54.10;51.70
31387;DHT22;18017;50.124;8.688;2022-08-03T11:58:47;54.20;51.10
31387;DHT22;18017;50.124;8.688;2022-08-03T12:01:13;53.30;51.80
31387;DHT22;18017;50.124;8.688;2022-08-03T12:03:41;51.90;51.50
31387;DHT22;18017;50.124;8.688;2022-08-03T12:06:12;51.60;51.60
31387;DHT22;18017;50.124;8.688;2022-08-03T12:08:39;52.00;51.70
31387;DHT22;18017;50.124;8.688;2022-08-03T12:11:06;51.30;51.60
31387;DHT22;18017;50.124;8.688;2022-08-03T12:13:51;50.60;51.70
31387;DHT22;18017;50.124;8.688;2022-08-03T12:16:24;51.10;52.10
31387;DHT22;18017;50.124;8.688;2022-08-03T12:21:24;52.30;51.80
31387;DHT22;18017;50.124;8.688;2022-08-03T12:23:55;52.30;51.60
31387;DHT22;18017;50.124;8.688;2022-08-03T12:26:23;51.90;51.50
31387;DHT22;18017;50.124;8.688;2022-08-03T12:28:49;49.90;51.50
31387;DHT22;18017;50.124;8.688;2022-08-03T12:31:14;47.70;52.30
31387;DHT22;18017;50.124;8.688;2022-08-03T12:34:01;47.30;52.40
31387;DHT22;18017;50.124;8.688;2022-08-03T12:36:29;47.50;52.10
31387;DHT22;18017;50.124;8.688;2022-08-03T12:38:57;47.40;52.20
31387;DHT22;18017;50.124;8.688;2022-08-03T12:41:31;47.80;52.30
31387;DHT22;18017;50.124;8.688;2022-08-03T12:43:57;48.40;52.30
31387;DHT22;18017;50.124;8.688;2022-08-03T12:46:35;48.50;52.10
31387;DHT22;18017;50.124;8.688;2022-08-03T12:49:12;49.00;52.20
31387;DHT22;18017;50.124;8.688;2022-08-03T12:54:42;47.50;51.80
31387;DHT22;18017;50.124;8.688;2022-08-03T12:57:06;46.60;52.40
31387;DHT22;18017;50.124;8.688;2022-08-03T12:59:35;46.70;52.80
31387;DHT22;18017;50.124;8.688;2022-08-03T13:02:04;47.00;52.40
31387;DHT22;18017;50.124;8.688;2022-08-03T13:04:32;47.10;52.40
31387;DHT22;18017;50.124;8.688;2022-08-03T13:07:06;46.50;52.10
31387;DHT22;18017;50.124;8.688;2022-08-03T13:09:44;46.00;52.40
31387;DHT22;18017;50.124;8.688;2022-08-03T13:12:20;45.20;52.70
31387;DHT22;18017;50.124;8.688;2022-08-03T13:14:47;45.10;52.80
31387;DHT22;18017;50.124;8.688;2022-08-03T13:17:17;45.00;52.50
31387;DHT22;18017;50.124;8.688;2022-08-03T13:19:44;44.90;53.00
31387;DHT22;18017;50.124;8.688;2022-08-03T13:22:18;45.20;52.90
31387;DHT22;18017;50.124;8.688;2022-08-03T13:24:45;44.90;52.90
31387;DHT22;18017;50.124;8.688;2022-08-03T13:27:12;45.00;52.80
31387;DHT22;18017;50.124;8.688;2022-08-03T13:29:38;45.20;52.80
31387;DHT22;18017;50.124;8.688;2022-08-03T13:32:04;45.10;52.50
31387;DHT22;18017;50.124;8.688;2022-08-03T13:34:30;45.00;52.40
31387;DHT22;18017;50.124;8.688;2022-08-03T13:36:55;44.90;52.70
31387;DHT22;18017;50.124;8.688;2022-08-03T13:39:21;44.60;52.60
31387;DHT22;18017;50.124;8.688;2022-08-03T13:41:47;43.90;52.60
31387;DHT22;18017;50.124;8.688;2022-08-03T13:44:13;43.70;53.40
31387;DHT22;18017;50.124;8.688;2022-08-03T13:46:39;43.80;52.80
31387;DHT22;18017;50.124;8.688;2022-08-03T13:49:05;43.90;53.10
31387;DHT22;18017;50.124;8.688;2022-08-03T13:51:30;43.80;53.10
31387;DHT22;18017;50.124;8.688;2022-08-03T13:53:56;43.10;53.20
31387;DHT22;18017;50.124;8.688;2022-08-03T13:56:27;42.90;53.70
31387;DHT22;18017;50.124;8.688;2022-08-03T13:58:52;42.80;53.30
31387;DHT22;18017;50.124;8.688;2022-08-03T14:01:18;42.50;54.00
31387;DHT22;18017;50.124;8.688;2022-08-03T14:03:44;42.50;53.40
31387;DHT22;18017;50.124;8.688;2022-08-03T14:06:13;42.40;53.60
31387;DHT22;18017;50.124;8.688;2022-08-03T14:08:38;42.20;53.50
31387;DHT22;18017;50.124;8.688;2022-08-03T14:11:04;41.90;54.00
31387;DHT22;18017;50.124;8.688;2022-08-03T14:13:29;41.70;54.20
31387;DHT22;18017;50.124;8.688;2022-08-03T14:15:55;41.50;54.20
31387;DHT22;18017;50.124;8.688;2022-08-03T14:18:21;41.20;54.20
31387;DHT22;18017;50.124;8.688;2022-08-03T14:20:47;41.10;54.30
31387;DHT22;18017;50.124;8.688;2022-08-03T14:23:13;41.20;54.50
31387;DHT22;18017;50.124;8.688;2022-08-03T14:25:39;41.10;54.50
31387;DHT22;18017;50.124;8.688;2022-08-03T14:28:06;41.00;54.40
31387;DHT22;18017;50.124;8.688;2022-08-03T14:30:32;41.20;54.20
31387;DHT22;18017;50.124;8.688;2022-08-03T14:32:58;40.90;54.20
31387;DHT22;18017;50.124;8.688;2022-08-03T14:35:23;40.20;54.50
31387;DHT22;18017;50.124;8.688;2022-08-03T14:37:49;39.60;55.10
31387;DHT22;18017;50.124;8.688;2022-08-03T14:40:16;39.20;55.40
31387;DHT22;18017;50.124;8.688;2022-08-03T14:42:42;38.50;55.40
31387;DHT22;18017;50.124;8.688;2022-08-03T14:45:08;38.30;56.30
31387;DHT22;18017;50.124;8.688;2022-08-03T14:47:33;38.50;56.30
31387;DHT22;18017;50.124;8.688;2022-08-03T14:49:59;38.60;56.20
31387;DHT22;18017;50.124;8.688;2022-08-03T14:52:25;38.70;56.10
31387;DHT22;18017;50.124;8.688;2022-08-03T14:54:50;38.70;56.60
31387;DHT22;18017;50.124;8.688;2022-08-03T14:57:16;38.40;56.20
31387;DHT22;18017;50.124;8.688;2022-08-03T14:59:41;37.90;56.30
31387;DHT22;18017;50.124;8.688;2022-08-03T15:02:07;37.40;56.70
31387;DHT22;18017;50.124;8.688;2022-08-03T15:04:33;37.40;57.30
31387;DHT22;18017;50.124;8.688;2022-08-03T15:06:58;37.50;57.10
31387;DHT22;18017;50.124;8.688;2022-08-03T15:09:24;37.60;57.50
31387;DHT22;18017;50.124;8.688;2022-08-03T15:11:49;37.40;56.80
31387;DHT22;18017;50.124;8.688;2022-08-03T15:14:15;36.70;57.10
31387;DHT22;18017;50.124;8.688;2022-08-03T15:16:41;36.50;57.50
31387;DHT22;18017;50.124;8.688;2022-08-03T15:19:06;36.50;58.20
31387;DHT22;18017;50.124;8.688;2022-08-03T15:21:32;36.50;57.70
31387;DHT22;18017;50.124;8.688;2022-08-03T15:23:58;36.40;57.60
31387;DHT22;18017;50.124;8.688;2022-08-03T15:26:23;36.20;57.60
31387;DHT22;18017;50.124;8.688;2022-08-03T15:28:49;36.00;57.80
31387;DHT22;18017;50.124;8.688;2022-08-03T15:31:14;35.90;57.80
31387;DHT22;18017;50.124;8.688;2022-08-03T15:33:44;35.90;57.90
31387;DHT22;18017;50.124;8.688;2022-08-03T15:36:10;35.80;58.10
31387;DHT22;18017;50.124;8.688;2022-08-03T15:38:35;35.70;58.00
31387;DHT22;18017;50.124;8.688;2022-08-03T15:41:01;35.70;58.10
31387;DHT22;18017;50.124;8.688;2022-08-03T15:43:26;35.70;58.90
31387;DHT22;18017;50.124;8.688;2022-08-03T15:45:52;35.70;58.40
31387;DHT22;18017;50.124;8.688;2022-08-03T15:48:18;35.50;58.60
31387;DHT22;18017;50.124;8.688;2022-08-03T15:50:44;35.50;58.40
31387;DHT22;18017;50.124;8.688;2022-08-03T15:53:10;35.40;58.50
31387;DHT22;18017;50.124;8.688;2022-08-03T15:55:35;35.40;58.70
31387;DHT22;18017;50.124;8.688;2022-08-03T15:58:01;35.30;58.90
31387;DHT22;18017;50.124;8.688;2022-08-03T16:00:26;35.30;59.00
31387;DHT22;18017;50.124;8.688;2022-08-03T16:02:53;35.30;58.90
31387;DHT22;18017;50.124;8.688;2022-08-03T16:05:18;35.30;58.80
31387;DHT22;18017;50.124;8.688;2022-08-03T16:07:44;35.30;58.50
31387;DHT22;18017;50.124;8.688;2022-08-03T16:10:16;35.20;58.60